Time;durP1;ratioP1;P1;durP2;ratioP2;P2;SDS_P1;SDS_P2;PMS_P1;PMS_P2;Temp;Humidity;BMP_temperature;BMP_pressure;BME280_temperature;BME280_humidity;BME280_pressure;Samples;Min_cycle;Max_cycle;Signal;HPM_P1;HPM_P2
2024/02/10 00:00:19;;;;;;;16.17;7.28;;;11.20;99.90;;;11.18;91.17;97625.53;5019477;28;20551;-81
2024/02/10 00:02:47;;;;;;;14.85;6.80;;;11.20;99.90;;;11.20;91.24;97624.16;5037445;28;20045;-81
2024/02/10 00:05:16;;;;;;;14.50;7.20;;;11.20;99.90;;;11.21;91.32;97628.41;5037039;28;20429;-81
2024/02/10 00:07:52;;;;;;;14.30;6.82;;;11.20;99.90;;;11.23;91.09;97618.25;5019393;28;20128;-81
2024/02/10 00:10:21;;;;;;;12.65;6.68;;;11.20;99.90;;;11.25;91.03;97620.63;5019375;28;20045;-81
2024/02/10 00:12:50;;;;;;;11.98;6.82;;;11.20;99.90;;;11.23;91.05;97626.25;5037217;28;20054;-81
2024/02/10 00:15:20;;;;;;;12.85;6.68;;;11.20;99.90;;;11.23;90.70;97620.94;5037222;28;20042;-81
2024/02/10 00:17:48;;;;;;;12.13;6.40;;;11.20;99.90;;;11.23;90.80;97620.94;5019583;28;20497;-81
2024/02/10 00:20:18;;;;;;;14.13;6.82;;;11.20;99.90;;;11.23;90.84;97620.16;5035801;28;20100;-81
2024/02/10 00:22:46;;;;;;;17.83;7.82;;;11.20;99.90;;;11.23;90.90;97612.94;5019649;28;20406;-81
2024/02/10 00:25:15;;;;;;;19.08;8.52;;;11.20;99.90;;;11.23;91.05;97631.59;5019463;28;20425;-81
2024/02/10 00:27:46;;;;;;;16.60;7.32;;;11.20;99.90;;;11.18;91.55;97634.34;5036920;28;20041;-81
2024/02/10 00:30:16;;;;;;;17.95;7.90;;;11.20;99.90;;;11.15;92.11;97634.09;5036948;28;20153;-81
2024/02/10 00:32:51;;;;;;;19.65;7.60;;;11.10;99.90;;;11.15;92.15;97640.22;5036855;28;20069;-81
2024/02/10 00:35:22;;;;;;;15.38;6.13;;;11.10;99.90;;;11.15;91.88;97642.91;5036723;28;20045;-81
2024/02/10 00:37:50;;;;;;;10.50;5.18;;;11.20;99.90;;;11.16;91.88;97649.03;5019445;28;20099;-81
2024/02/10 00:40:17;;;;;;;11.55;5.00;;;11.10;99.90;;;11.15;91.36;97628.75;5019026;28;20575;-81
2024/02/10 00:42:45;;;;;;;9.02;4.60;;;11.10;99.90;;;11.13;91.29;97634.41;5036301;28;20049;-81
2024/02/10 00:45:12;;;;;;;7.45;3.90;;;11.10;99.90;;;11.14;91.00;97635.97;5019170;28;20100;-81
2024/02/10 00:47:45;;;;;;;6.88;3.90;;;11.10;99.90;;;11.14;90.78;97640.53;5036582;28;20055;-81
2024/02/10 00:50:15;;;;;;;6.28;4.38;;;11.10;99.90;;;11.06;90.66;97633.91;5018550;28;20046;-81
2024/02/10 00:52:49;;;;;;;7.72;3.88;;;11.10;99.90;;;11.08;90.88;97635.25;5036916;28;20457;-81
2024/02/10 00:55:17;;;;;;;8.63;3.90;;;11.10;99.90;;;11.03;90.57;97642.50;5018378;28;20045;-81
2024/02/10 00:57:46;;;;;;;6.50;3.20;;;11.00;99.90;;;10.95;90.73;97635.91;5002614;28;20042;-81
2024/02/10 01:00:16;;;;;;;8.15;2.85;;;11.00;99.90;;;10.98;90.64;97629.22;5018703;28;20065;-81
2024/02/10 01:02:45;;;;;;;7.10;2.30;;;11.00;99.90;;;10.94;90.35;97637.00;5034791;28;20049;-81
2024/02/10 01:05:14;;;;;;;6.30;2.75;;;10.90;99.90;;;10.97;90.58;97616.94;5018280;28;20105;-81
2024/02/10 01:07:43;;;;;;;4.65;2.17;;;10.90;99.90;;;10.98;90.12;97626.53;5017998;28;20042;-81
2024/02/10 01:10:11;;;;;;;5.28;2.45;;;10.90;99.90;;;10.99;89.75;97636.16;5018259;28;20490;-81
2024/02/10 01:12:38;;;;;;;6.22;2.13;;;10.90;99.90;;;10.98;89.34;97635.34;5017983;28;20045;-81
2024/02/10 01:15:07;;;;;;;5.80;2.28;;;10.90;99.90;;;10.99;89.49;97636.94;5035921;28;20468;-81
2024/02/10 01:17:35;;;;;;;4.13;2.10;;;10.90;99.90;;;11.00;89.06;97635.06;5035569;28;20049;-81
2024/02/10 01:20:03;;;;;;;3.85;1.55;;;10.90;99.90;;;10.90;88.97;97625.31;5035835;28;20065;-81
2024/02/10 01:22:33;;;;;;;3.63;1.60;;;10.90;99.90;;;10.94;88.79;97628.22;5002542;28;20412;-81
2024/02/10 01:25:00;;;;;;;4.22;1.58;;;10.90;99.90;;;10.94;88.94;97633.53;5036086;28;20052;-81
2024/02/10 01:27:28;;;;;;;3.97;1.63;;;10.80;99.90;;;10.95;88.96;97629.78;5018375;28;20041;-81
2024/02/10 01:29:56;;;;;;;4.68;1.70;;;10.80;99.90;;;10.95;88.90;97635.13;5035815;28;20488;-81
2024/02/10 01:32:24;;;;;;;4.40;1.70;;;10.80;99.90;;;10.95;88.89;97630.59;5035528;28;20497;-81
2024/02/10 01:34:53;;;;;;;4.22;1.75;;;10.80;99.90;;;10.95;89.00;97633.25;5036192;28;20045;-81
2024/02/10 01:37:21;;;;;;;3.97;1.90;;;10.80;99.90;;;10.96;88.60;97642.03;5018167;28;20041;-81
2024/02/10 01:39:54;;;;;;;4.82;2.13;;;10.80;99.90;;;10.94;88.42;97634.34;5017584;28;20037;-81
2024/02/10 01:42:37;;;;;;;5.45;2.20;;;10.80;99.90;;;10.94;88.43;97637.00;5033861;28;20501;-81
2024/02/10 01:45:08;;;;;;;4.43;2.22;;;10.80;99.90;;;10.95;88.40;97635.13;5017973;28;20051;-81
2024/02/10 01:47:37;;;;;;;;;;;10.80;99.90;;;10.94;88.26;97633.53;5018220;28;20144;-81
2024/02/10 01:50:07;;;;;;;4.43;2.10;;;10.80;99.90;;;10.93;88.26;97632.75;5017435;28;20308;-81
2024/02/10 01:52:37;;;;;;;4.78;2.40;;;10.80;99.90;;;10.93;88.25;97626.59;5035074;28;20416;-81
2024/02/10 01:55:09;;;;;;;4.68;2.70;;;10.80;99.90;;;10.91;88.40;97631.44;5017178;28;20048;-81
2024/02/10 01:57:37;;;;;;;5.57;2.72;;;10.80;99.90;;;10.92;88.31;97633.00;5017475;28;20045;-81
2024/02/10 02:00:06;;;;;;;6.18;2.92;;;10.80;99.90;;;10.91;88.42;97636.75;5018087;28;20421;-81
2024/02/10 02:02:34;;;;;;;6.25;3.13;;;10.80;99.90;;;10.88;88.38;97622.09;5017013;28;20128;-81
2024/02/10 02:05:03;;;;;;;5.93;3.20;;;10.80;99.90;;;10.89;88.38;97630.94;5017950;28;20058;-81
2024/02/10 02:07:32;;;;;;;5.85;3.10;;;10.80;99.90;;;10.89;88.54;97629.06;5035652;28;20061;-81
2024/02/10 02:10:00;;;;;;;7.35;3.40;;;10.80;99.90;;;10.90;88.20;97624.50;5034806;28;20073;-81
2024/02/10 02:12:31;;;;;;;10.27;3.40;;;11.00;99.90;;;10.91;88.33;97631.44;5035027;28;20489;-81
2024/02/10 02:14:59;;;;;;;8.68;3.40;;;10.80;99.90;;;10.91;88.35;97629.56;5017564;28;20065;-81
2024/02/10 02:17:26;;;;;;;6.05;3.22;;;10.80;99.90;;;10.91;88.46;97626.88;5034732;28;20108;-81
2024/02/10 02:19:53;;;;;;;9.05;3.30;;;10.80;99.90;;;10.91;88.42;97624.22;5034747;28;20049;-81
2024/02/10 02:22:21;;;;;;;4.60;3.00;;;10.80;99.90;;;10.90;88.31;97627.97;5016739;28;20053;-81
2024/02/10 02:24:50;;;;;;;7.25;3.28;;;10.80;99.90;;;10.89;88.34;97630.94;5034976;28;20125;-81
2024/02/10 02:27:18;;;;;;;7.03;3.33;;;10.70;99.90;;;10.91;88.01;97631.44;5034906;28;20053;-81
2024/02/10 02:29:45;;;;;;;6.97;3.40;;;10.80;99.90;;;10.87;87.93;97627.72;5016810;28;20046;-81
2024/02/10 02:32:13;;;;;;;9.05;3.58;;;10.70;99.90;;;10.83;88.75;97619.50;5016786;28;20045;-81
2024/02/10 02:34:41;;;;;;;5.70;3.10;;;10.80;99.90;;;10.83;89.03;97622.97;5016925;28;20586;-81
2024/02/10 02:37:08;;;;;;;7.85;4.05;;;10.80;99.90;;;10.83;89.41;97622.16;5000537;28;20474;-81
2024/02/10 02:39:36;;;;;;;6.78;3.15;;;10.80;99.90;;;10.80;89.77;97625.41;5034678;28;20124;-81
2024/02/10 02:42:06;;;;;;;9.43;3.50;;;10.80;99.90;;;10.84;89.77;97626.44;5016411;28;20509;-81
2024/02/10 02:44:33;;;;;;;9.32;3.58;;;10.80;99.90;;;10.88;89.71;97618.66;5034688;28;20452;-81
2024/02/10 02:47:04;;;;;;;6.53;3.40;;;10.80;99.90;;;10.91;89.43;97623.44;5034397;28;20045;-81
2024/02/10 02:49:32;;;;;;;5.05;3.38;;;10.80;99.90;;;10.91;89.46;97626.09;5034513;28;20038;-81
2024/02/10 02:51:59;;;;;;;7.40;3.47;;;10.80;99.90;;;10.93;89.46;97626.59;5034554;28;20045;-81
2024/02/10 02:54:31;;;;;;;6.95;3.28;;;10.80;99.90;;;10.93;89.59;97622.09;5034586;28;20129;-81
2024/02/10 02:57:00;;;;;;;7.07;3.05;;;10.80;99.90;;;10.95;89.46;97616.47;5016926;28;20096;-81
2024/02/10 02:59:28;;;;;;;6.82;3.20;;;10.80;99.90;;;10.95;89.17;97608.47;5034725;28;20547;-81
2024/02/10 03:01:56;;;;;;;5.43;3.00;;;10.80;99.90;;;10.95;89.08;97608.47;5016714;28;20065;-81
2024/02/10 03:04:24;;;;;;;7.47;3.63;;;10.80;99.90;;;10.95;89.26;97603.13;5016739;28;20125;-81
2024/02/10 03:06:51;;;;;;;8.00;3.28;;;10.80;99.90;;;10.95;89.51;97609.25;5000328;28;20136;-81
2024/02/10 03:09:18;;;;;;;5.45;3.30;;;10.80;99.90;;;10.95;89.26;97600.47;5034386;28;20042;-81
2024/02/10 03:11:46;;;;;;;7.10;3.50;;;10.80;99.90;;;10.94;89.07;97598.88;5034129;28;20068;-81
2024/02/10 03:14:14;;;;;;;5.78;3.50;;;10.80;99.90;;;10.94;88.91;97590.88;5017479;28;20048;-81
2024/02/10 03:16:44;;;;;;;8.73;3.25;;;10.80;99.90;;;10.93;89.06;97589.25;5004462;28;20135;-81
2024/02/10 03:19:12;;;;;;;6.38;2.95;;;10.80;99.90;;;10.92;88.93;97587.69;5038224;28;20516;-81
2024/02/10 03:21:39;;;;;;;5.53;3.15;;;10.80;99.90;;;10.91;88.80;97578.88;5020132;28;20128;-81
2024/02/10 03:24:07;;;;;;;6.78;3.00;;;10.80;99.90;;;10.86;88.60;97583.50;5020082;28;20045;-81
2024/02/10 03:26:36;;;;;;;7.63;3.38;;;10.80;99.90;;;10.86;88.47;97588.81;5038223;28;20044;-81
2024/02/10 03:29:05;;;;;;;7.15;3.10;;;10.80;99.90;;;10.85;88.42;97581.91;5019903;28;20041;-81
2024/02/10 03:31:32;;;;;;;8.27;3.00;;;10.70;99.90;;;10.83;88.38;97588.31;5037891;28;20049;-81
2024/02/10 03:34:03;;;;;;;7.82;2.95;;;10.70;99.90;;;10.83;88.68;97576.84;5019782;28;20099;-81
2024/02/10 03:36:30;;;;;;;5.57;3.20;;;10.70;99.90;;;10.83;88.51;97582.19;5037707;28;20041;-81
2024/02/10 03:39:03;;;;;;;5.30;2.80;;;10.70;99.90;;;10.85;88.23;97581.91;5019883;28;20501;-81
2024/02/10 03:41:31;;;;;;;5.80;2.88;;;10.70;99.90;;;10.81;87.93;97579.00;5019550;28;20519;-81
2024/02/10 03:43:58;;;;;;;7.47;3.15;;;10.70;99.90;;;10.79;87.96;97573.97;5037761;28;20037;-81
2024/02/10 03:46:30;;;;;;;6.85;2.58;;;10.70;99.90;;;10.75;88.10;97575.63;5037899;28;20054;-81
2024/02/10 03:48:58;;;;;;;6.88;3.08;;;10.70;99.90;;;10.77;88.17;97580.66;5019835;28;20041;-81
2024/02/10 03:51:28;;;;;;;5.07;2.80;;;10.70;99.90;;;10.76;87.72;97584.41;5037408;28;20049;-81
2024/02/10 03:53:55;;;;;;;4.93;3.00;;;10.70;99.90;;;10.76;87.78;97579.84;5037500;28;20057;-81
2024/02/10 03:56:23;;;;;;;6.70;3.00;;;10.70;99.90;;;10.77;87.58;97577.97;5019655;28;20048;-81
2024/02/10 03:58:51;;;;;;;5.28;2.85;;;10.70;99.90;;;10.74;87.26;97579.38;5037732;28;20378;-81
2024/02/10 04:01:18;;;;;;;7.65;3.22;;;10.60;99.90;;;10.75;87.31;97577.50;5019281;28;20045;-81
2024/02/10 04:03:47;;;;;;;4.60;2.50;;;10.60;99.90;;;10.75;87.20;97575.63;5037549;28;20041;-81
2024/02/10 04:06:16;;;;;;;4.60;2.70;;;10.60;99.90;;;10.75;87.16;97567.63;5037630;28;20087;-81
2024/02/10 04:08:46;;;;;;;4.57;2.63;;;10.60;99.90;;;10.75;87.34;97572.94;5037364;28;20038;-81
2024/02/10 04:11:14;;;;;;;5.28;2.55;;;10.60;99.90;;;10.75;87.43;97574.81;5019787;28;20515;-81
2024/02/10 04:13:41;;;;;;;5.63;2.40;;;10.60;99.90;;;10.74;87.08;97581.25;5020076;28;20045;-81
2024/02/10 04:16:10;;;;;;;4.57;2.47;;;10.60;99.90;;;10.72;87.10;97581.50;5037276;28;20033;-81
2024/02/10 04:18:38;;;;;;;5.25;2.50;;;10.60;99.90;;;10.72;86.87;97573.50;5037484;28;20037;-81
2024/02/10 04:21:06;;;;;;;4.57;2.28;;;10.60;99.90;;;10.72;86.82;97578.03;5036795;28;20042;-81
2024/02/10 04:23:35;;;;;;;4.57;1.90;;;10.50;99.90;;;10.69;86.55;97576.75;5037278;28;20099;-81
2024/02/10 04:26:05;;;;;;;4.13;2.28;;;10.50;99.90;;;10.70;86.49;97585.53;5036727;28;20099;-81
2024/02/10 04:28:33;;;;;;;4.57;2.22;;;10.60;99.90;;;10.67;86.42;97589.56;5018816;28;20045;-81
2024/02/10 04:31:01;;;;;;;5.75;2.10;;;10.50;99.90;;;10.66;86.42;97589.84;5002601;28;20052;-81
2024/02/10 04:33:28;;;;;;;10.00;2.45;;;10.50;99.90;;;10.63;86.37;97587.72;5036791;28;20475;-81
2024/02/10 04:35:55;;;;;;;4.90;2.20;;;10.40;99.90;;;10.56;86.56;97588.88;5036887;28;20485;-81
2024/02/10 04:38:23;;;;;;;3.50;1.95;;;10.40;99.90;;;10.59;87.09;97592.84;5019101;28;20485;-81
2024/02/10 04:40:52;;;;;;;7.70;1.90;;;10.50;99.90;;;10.62;86.94;97591.47;5018292;28;20076;-81
2024/02/10 04:43:21;;;;;;;3.40;1.98;;;10.50;99.90;;;10.61;86.71;97593.34;5018979;28;20048;-81
2024/02/10 04:45:49;;;;;;;4.30;1.98;;;10.50;99.90;;;10.60;86.56;97589.09;5036698;28;20517;-81
2024/02/10 04:48:19;;;;;;;3.28;2.10;;;10.50;99.90;;;10.60;86.47;97591.78;4970296;28;20410;-81
2024/02/10 04:50:47;;;;;;;5.07;2.58;;;10.50;99.90;;;10.60;86.31;97585.66;5018802;28;20041;-81
2024/02/10 04:53:16;;;;;;;3.53;2.08;;;10.50;99.90;;;10.60;86.44;97588.31;5036987;28;20446;-81
2024/02/10 04:55:44;;;;;;;4.78;2.38;;;10.40;99.90;;;10.57;86.09;97594.97;5003471;28;20042;-81
2024/02/10 04:58:12;;;;;;;4.47;2.00;;;10.40;99.90;;;10.56;86.06;97594.19;5036261;28;20493;-81
2024/02/10 05:00:41;;;;;;;4.68;2.40;;;10.40;99.90;;;10.55;85.89;97587.28;5018402;28;20037;-81
2024/02/10 05:03:08;;;;;;;6.85;2.40;;;10.40;99.90;;;10.55;85.74;97595.28;5036245;28;20049;-81
2024/02/10 05:05:36;;;;;;;6.63;2.83;;;10.40;99.90;;;10.53;85.57;97588.63;5036178;28;20396;-81
2024/02/10 05:08:06;;;;;;;3.95;2.25;;;10.40;99.90;;;10.50;85.57;97597.19;5018252;28;20038;-81
2024/02/10 05:10:33;;;;;;;3.70;2.38;;;10.30;99.90;;;10.48;85.61;97597.47;5018824;28;20045;-81
2024/02/10 05:13:01;;;;;;;5.80;2.80;;;10.30;99.90;;;10.46;85.32;97590.84;5036639;28;20049;-81
2024/02/10 05:15:29;;;;;;;5.63;2.47;;;10.30;99.90;;;10.45;85.28;97597.25;5018182;28;20073;-81
2024/02/10 05:18:04;;;;;;;4.45;2.60;;;10.30;99.90;;;10.43;85.24;97597.50;5035873;28;20164;-81
2024/02/10 05:20:32;;;;;;;5.65;2.50;;;10.20;99.90;;;10.42;85.11;97595.13;5017903;28;20057;-81
2024/02/10 05:22:59;;;;;;;4.72;2.85;;;10.20;99.90;;;10.41;85.12;97590.88;5018021;28;20061;-81
2024/02/10 05:25:34;;;;;;;6.18;2.80;;;10.20;99.90;;;10.40;85.14;97587.44;5018350;28;20126;-81
2024/02/10 05:28:03;;;;;;;5.00;2.90;;;10.20;99.90;;;10.40;85.07;97586.66;5035675;28;20053;-81
2024/02/10 05:30:30;;;;;;;4.53;2.60;;;10.20;99.90;;;10.38;85.15;97586.91;5017511;28;20038;-81
2024/02/10 05:33:01;;;;;;;5.70;3.10;;;10.20;99.90;;;10.39;85.14;97590.34;5035415;28;20038;-81
2024/02/10 05:35:29;;;;;;;;;;;10.20;99.90;;;10.37;84.98;97587.19;5036332;28;20501;-81
2024/02/10 05:37:58;;;;;;;4.97;2.92;;;10.20;99.90;;;10.37;85.14;97587.19;5034742;28;19951;-81
2024/02/10 05:40:28;;;;;;;4.88;2.60;;;10.20;99.90;;;10.37;84.92;97590.66;5035698;28;20124;-81
2024/02/10 05:42:58;;;;;;;4.25;2.70;;;10.20;99.90;;;10.34;85.13;97588.53;5035086;28;20107;-81
2024/02/10 05:45:28;;;;;;;5.28;2.95;;;10.20;99.90;;;10.34;84.99;97598.41;5035342;28;20045;-81
2024/02/10 05:47:55;;;;;;;6.93;2.63;;;10.10;99.90;;;10.32;84.93;97599.47;5017226;28;20116;-81
2024/02/10 05:50:27;;;;;;;4.45;2.50;;;10.20;99.90;;;10.31;84.95;97600.56;5034403;28;20107;-81
2024/02/10 05:52:57;;;;;;;4.53;2.70;;;10.10;99.90;;;10.30;84.61;97598.97;4968400;28;20061;-81
2024/02/10 05:55:27;;;;;;;6.35;2.80;;;10.10;99.90;;;10.29;84.66;97596.56;5016901;28;20076;-81
2024/02/10 05:57:55;;;;;;;5.53;3.00;;;10.10;99.90;;;10.26;84.58;97597.16;5034267;28;20050;-81
2024/02/10 06:00:23;;;;;;;4.63;2.65;;;10.10;99.90;;;10.25;84.42;97604.34;5034256;28;20132;-81
2024/02/10 06:02:51;;;;;;;4.55;2.67;;;10.10;99.90;;;10.23;84.54;97605.66;5000389;28;20495;-81
2024/02/10 06:05:19;;;;;;;5.00;2.78;;;10.00;99.90;;;10.25;84.74;97606.22;5034159;28;20046;-81
2024/02/10 06:07:48;;;;;;;4.47;2.78;;;10.10;99.90;;;10.26;84.57;97610.47;5016934;28;20128;-81
2024/02/10 06:10:16;;;;;;;4.90;2.53;;;10.10;99.90;;;10.25;84.73;97609.69;5016583;28;20519;-81
2024/02/10 06:12:48;;;;;;;4.20;2.72;;;10.10;99.90;;;10.25;84.73;97601.69;5016954;28;20048;-81
2024/02/10 06:15:18;;;;;;;5.45;3.03;;;10.10;99.90;;;10.25;84.56;97615.00;5035056;28;20038;-81
2024/02/10 06:17:49;;;;;;;6.20;3.17;;;10.10;99.90;;;10.24;84.63;97610.72;5017275;28;20045;-81
2024/02/10 06:20:20;;;;;;;6.15;3.00;;;10.10;99.90;;;10.23;84.72;97609.13;5034947;28;20054;-81
2024/02/10 06:22:50;;;;;;;7.70;3.10;;;10.10;99.90;;;10.23;84.55;97606.44;5034782;28;20041;-81
2024/02/10 06:25:22;;;;;;;5.22;2.95;;;10.10;99.90;;;10.22;84.55;97612.06;5034781;28;20045;-82
2024/02/10 06:27:51;;;;;;;7.70;2.83;;;10.00;99.90;;;10.23;84.65;97618.97;5034713;28;20041;-81
2024/02/10 06:30:18;;;;;;;5.88;2.90;;;10.10;99.90;;;10.23;84.28;97624.31;5035159;28;20536;-81
2024/02/10 06:32:46;;;;;;;6.65;2.60;;;10.00;99.90;;;10.22;84.30;97631.50;5016984;28;20420;-86
2024/02/10 06:35:16;;;;;;;4.47;2.78;;;10.00;99.90;;;10.18;84.13;97630.47;5015884;28;20045;-87
2024/02/10 06:37:46;;;;;;;6.47;2.78;;;10.00;99.90;;;10.15;84.05;97636.38;5015887;28;20052;-86
2024/02/10 06:40:19;;;;;;;5.00;2.80;;;10.00;99.90;;;10.16;83.92;97639.81;4999772;28;20069;-86
2024/02/10 06:42:48;;;;;;;4.57;2.53;;;10.00;99.90;;;10.14;83.93;97656.06;5033075;28;20129;-86
2024/02/10 06:45:20;;;;;;;4.93;3.00;;;9.90;99.90;;;10.11;83.90;97648.63;5015695;28;20056;-86
2024/02/10 06:47:50;;;;;;;5.95;2.83;;;9.90;99.90;;;10.10;83.74;97648.91;5033420;28;20042;-89
2024/02/10 06:50:23;;;;;;;5.78;3.10;;;9.90;99.90;;;10.09;83.86;97649.97;4987202;28;20057;-88
2024/02/10 06:52:52;;;;;;;4.07;2.58;;;9.90;99.90;;;10.09;83.57;97652.63;5005135;28;20077;-90
2024/02/10 06:55:26;;;;;;;5.35;2.53;;;9.90;99.90;;;10.08;83.83;97659.84;5019493;28;20525;-89
2024/02/10 06:57:55;;;;;;;5.63;2.75;;;9.90;99.90;;;10.10;83.96;97657.69;5019145;28;20119;-88
2024/02/10 07:00:24;;;;;;;5.40;2.55;;;9.90;99.90;;;10.09;83.90;97666.75;5019116;28;20466;-90
2024/02/10 07:02:53;;;;;;;6.47;3.40;;;9.90;99.90;;;10.07;84.28;97672.34;5019296;28;20053;-88
2024/02/10 07:05:22;;;;;;;8.15;4.40;;;9.90;99.90;;;10.06;84.54;97667.31;5019427;28;20136;-88
2024/02/10 07:07:50;;;;;;;10.80;4.95;;;9.90;99.90;;;10.09;84.48;97673.94;5037079;28;20049;-88
2024/02/10 07:10:21;;;;;;;8.80;5.05;;;9.90;99.90;;;10.09;84.58;97666.75;5018907;28;20049;-88
2024/02/10 07:12:53;;;;;;;9.25;4.65;;;9.90;99.90;;;10.11;84.53;97669.16;5036746;28;20044;-89
2024/02/10 07:15:23;;;;;;;6.78;3.78;;;9.90;99.90;;;10.12;84.62;97674.19;5019276;28;20123;-86
2024/02/10 07:17:52;;;;;;;6.53;3.30;;;10.00;99.90;;;10.13;84.49;97685.63;5036830;28;20049;-87
2024/02/10 07:20:21;;;;;;;5.25;3.03;;;9.90;99.90;;;10.14;84.54;97682.69;5036705;28;20463;-89
2024/02/10 07:22:54;;;;;;;7.47;2.92;;;10.00;99.90;;;10.13;84.65;97681.09;5036916;28;20045;-89
2024/02/10 07:25:26;;;;;;;11.98;3.58;;;10.00;99.90;;;10.15;84.98;97683.47;5036851;28;20053;-88
2024/02/10 07:27:53;;;;;;;;;;;10.00;99.90;;;10.15;85.18;97678.97;5019402;28;20042;-88
2024/02/10 07:30:22;;;;;;;5.00;2.83;;;10.00;99.90;;;10.18;85.21;97677.59;5018436;28;19947;-88
2024/02/10 07:32:51;;;;;;;5.28;3.05;;;10.00;99.90;;;10.20;85.44;97680.78;5036798;28;20125;-86
2024/02/10 07:35:21;;;;;;;5.97;3.28;;;10.10;99.90;;;10.22;85.50;97681.31;5037570;28;20067;-84
2024/02/10 07:37:50;;;;;;;6.05;2.90;;;10.10;99.90;;;10.25;85.55;97686.91;5039987;28;20037;-82
2024/02/10 07:40:18;;;;;;;4.75;3.08;;;10.10;99.90;;;10.23;85.40;97697.00;5003622;28;20049;-83
2024/02/10 07:42:52;;;;;;;6.80;2.97;;;10.10;99.90;;;10.25;85.63;97699.44;5036830;28;20045;-82
2024/02/10 07:45:20;;;;;;;6.07;3.00;;;10.10;99.90;;;10.27;85.72;97702.63;5034088;28;20118;-82
2024/02/10 07:47:49;;;;;;;5.65;3.65;;;10.10;99.90;;;10.27;86.08;97706.06;5023716;28;20048;-82
2024/02/10 07:50:17;;;;;;;6.90;3.22;;;10.20;99.90;;;10.29;86.04;97708.44;5020836;28;20115;-82
2024/02/10 07:52:49;;;;;;;5.75;3.70;;;10.20;99.90;;;10.32;86.17;97714.03;5019926;28;20085;-82
2024/02/10 07:55:18;;;;;;;8.50;3.78;;;10.20;99.90;;;10.36;86.60;97716.16;5036971;28;20046;-82
2024/02/10 07:57:48;;;;;;;5.38;3.30;;;10.30;99.90;;;10.38;86.63;97709.44;5036885;28;20045;-82
2024/02/10 08:00:18;;;;;;;6.93;4.13;;;10.30;99.90;;;10.40;86.62;97725.19;5018595;28;20103;-82
2024/02/10 08:02:45;;;;;;;5.90;3.63;;;10.30;99.90;;;10.41;86.74;97724.09;5018942;28;20128;-82
2024/02/10 08:05:20;;;;;;;8.02;3.90;;;10.30;99.90;;;10.43;86.96;97713.94;5019289;28;20626;-82
2024/02/10 08:07:47;;;;;;;7.60;4.30;;;10.40;99.90;;;10.46;87.17;97721.41;5019173;28;20052;-82
2024/02/10 08:10:15;;;;;;;7.03;4.20;;;10.40;99.90;;;10.48;87.31;97722.69;5036516;28;20076;-82
2024/02/10 08:12:45;;;;;;;8.07;4.60;;;10.40;99.90;;;10.46;87.71;97713.41;5018390;28;20792;-82
2024/02/10 08:15:15;;;;;;;6.45;4.53;;;10.50;99.90;;;10.47;87.83;97707.78;5018760;28;20056;-83
2024/02/10 08:17:43;;;;;;;8.75;4.55;;;10.50;99.90;;;10.47;88.49;97717.66;5020099;28;20065;-83
2024/02/10 08:20:12;;;;;;;7.22;4.60;;;10.50;99.90;;;10.50;89.03;97722.44;5052143;28;20042;-82
2024/02/10 08:22:39;;;;;;;7.07;4.75;;;10.50;99.90;;;10.52;89.44;97722.94;5019478;28;20041;-83
2024/02/10 08:25:09;;;;;;;7.72;4.80;;;10.60;99.90;;;10.53;89.58;97720.00;5020832;28;20484;-83
2024/02/10 08:27:39;;;;;;;10.45;4.70;;;10.60;99.90;;;10.57;89.61;97722.91;5003557;28;20072;-82
2024/02/10 08:30:10;;;;;;;9.25;4.32;;;10.60;99.90;;;10.59;89.89;97723.44;5037373;28;20128;-82
2024/02/10 08:32:40;;;;;;;;;;;10.60;99.90;;;10.63;89.60;97721.00;5019629;28;20099;-84
2024/02/10 08:35:13;;;;;;;6.75;4.68;;;10.70;99.90;;;10.61;89.68;97720.47;5020237;28;20345;-84
2024/02/10 08:37:42;;;;;;;9.65;4.97;;;10.70;99.90;;;10.64;89.97;97719.91;5020279;28;20124;-84
2024/02/10 08:40:12;;;;;;;8.38;4.40;;;10.70;99.90;;;10.67;89.88;97714.81;5036462;28;20045;-84
2024/02/10 08:42:40;;;;;;;6.83;4.40;;;10.80;99.90;;;10.62;89.75;97722.84;5020347;28;20037;-83
2024/02/10 08:45:14;;;;;;;7.68;4.82;;;10.80;99.90;;;10.69;89.98;97722.56;5052909;28;20669;-83
2024/02/10 08:47:45;;;;;;;8.48;4.22;;;10.80;99.90;;;10.71;90.24;97725.72;5037631;28;20099;-83
2024/02/10 08:50:15;;;;;;;8.27;4.20;;;10.90;99.90;;;10.75;90.34;97714.22;5037789;28;20397;-84
2024/02/10 08:52:49;;;;;;;6.82;4.38;;;10.90;99.90;;;10.77;90.40;97714.72;5037025;28;20091;-83
2024/02/10 08:55:17;;;;;;;6.20;4.15;;;10.90;99.90;;;10.80;90.26;97708.84;4998464;28;20085;-84
2024/02/10 08:57:46;;;;;;;9.55;4.28;;;10.90;99.90;;;10.79;89.79;97717.94;4999048;28;20062;-83
2024/02/10 09:00:16;;;;;;;7.88;4.18;;;10.90;99.90;;;10.85;89.95;97717.88;5031255;28;20049;-84
2024/02/10 09:02:45;;;;;;;6.25;4.05;;;11.00;99.90;;;10.84;90.01;97719.75;5016883;28;20119;-84
2024/02/10 09:05:13;;;;;;;8.90;4.20;;;11.00;99.90;;;10.88;89.78;97727.97;5035857;28;20045;-85
2024/02/10 09:07:41;;;;;;;8.27;3.70;;;11.00;99.90;;;10.91;89.70;97728.22;5049798;28;20072;-85
2024/02/10 09:10:10;;;;;;;6.30;3.72;;;11.00;99.90;;;10.92;89.51;97721.00;5034418;28;20108;-85
2024/02/10 09:12:37;;;;;;;6.82;3.88;;;11.10;99.90;;;10.92;89.30;97716.47;5017911;28;20052;-85
2024/02/10 09:15:06;;;;;;;6.85;3.75;;;11.10;99.90;;;10.91;88.77;97722.88;4984143;28;20486;-84
2024/02/10 09:17:33;;;;;;;6.10;4.00;;;11.20;99.90;;;10.90;88.77;97723.16;5017423;28;20037;-84
2024/02/10 09:20:08;;;;;;;8.85;3.55;;;11.10;99.90;;;10.93;88.47;97720.75;5034758;28;20076;-85
2024/02/10 09:22:36;;;;;;;6.10;3.60;;;11.10;99.90;;;10.95;88.36;97721.25;5017113;28;20429;-85
2024/02/10 09:25:04;;;;;;;5.40;3.30;;;11.10;99.90;;;10.98;88.39;97722.53;4999886;28;20115;-87
2024/02/10 09:27:32;;;;;;;7.47;3.78;;;11.10;99.90;;;10.99;88.41;97721.47;5033112;28;20088;-86
2024/02/10 09:30:00;;;;;;;6.40;3.42;;;11.10;99.90;;;11.02;88.12;97718.25;5034510;28;20116;-87
2024/02/10 09:32:28;;;;;;;6.80;3.60;;;11.20;99.90;;;11.05;88.02;97715.81;5033878;28;20045;-87
2024/02/10 09:34:55;;;;;;;6.40;3.50;;;11.20;99.90;;;11.05;87.73;97715.81;5016910;28;20076;-87
2024/02/10 09:37:25;;;;;;;10.27;3.42;;;11.20;99.90;;;11.06;87.50;97711.28;5003162;28;20072;-85
2024/02/10 09:39:52;;;;;;;7.78;3.72;;;11.20;99.90;;;11.07;87.37;97712.84;5038180;28;20112;-83
2024/02/10 09:42:22;;;;;;;7.53;3.47;;;11.20;99.90;;;11.09;87.63;97705.38;5036812;28;20076;-83
2024/02/10 09:44:50;;;;;;;5.85;2.80;;;11.20;99.90;;;11.09;86.70;97706.19;4986856;28;20047;-84
2024/02/10 09:47:19;;;;;;;4.55;2.83;;;11.30;99.90;;;11.13;86.55;97711.75;5036617;28;20441;-82
2024/02/10 09:49:47;;;;;;;5.15;3.00;;;11.30;99.90;;;11.14;86.13;97705.31;5035574;28;20515;-82
2024/02/10 09:52:15;;;;;;;5.53;3.17;;;11.30;99.90;;;11.17;86.50;97696.75;5018666;28;20459;-83
2024/02/10 09:54:44;;;;;;;4.25;2.72;;;11.30;99.90;;;11.18;86.45;97709.03;5018657;28;20049;-83
2024/02/10 09:57:14;;;;;;;4.68;2.63;;;11.40;99.90;;;11.23;86.76;97714.31;5036901;28;20056;-84
2024/02/10 09:59:42;;;;;;;5.30;2.90;;;11.40;99.90;;;11.27;86.47;97710.00;5053166;28;20128;-83
2024/02/10 10:02:09;;;;;;;4.75;2.90;;;11.50;99.90;;;11.29;86.36;97707.81;5019067;28;20058;-83
2024/02/10 10:04:37;;;;;;;5.63;2.80;;;11.50;99.90;;;11.32;86.51;97709.13;5019232;28;20038;-82
2024/02/10 10:07:09;;;;;;;4.55;2.53;;;11.50;99.90;;;11.34;86.37;97706.97;5036367;28;20095;-83
2024/02/10 10:09:38;;;;;;;4.78;2.80;;;11.50;99.90;;;11.34;86.19;97713.09;5035620;28;20123;-82
2024/02/10 10:12:10;;;;;;;3.97;2.55;;;11.50;99.90;;;11.35;86.29;97717.34;5035400;28;20045;-82
2024/02/10 10:14:39;;;;;;;3.90;2.40;;;11.50;99.90;;;11.38;86.11;97718.69;5035407;28;20041;-83
2024/02/10 10:17:13;;;;;;;4.30;2.45;;;11.50;99.90;;;11.40;85.33;97711.16;5035091;28;20501;-83
2024/02/10 10:19:41;;;;;;;5.72;2.40;;;11.60;99.90;;;11.40;84.64;97711.16;5002379;28;20057;-82
2024/02/10 10:22:08;;;;;;;6.28;2.50;;;11.60;99.90;;;11.41;84.77;97712.75;5050243;28;20049;-82
2024/02/10 10:24:38;;;;;;;6.47;2.28;;;11.60;99.90;;;11.43;85.12;97715.94;5034926;28;20045;-82
2024/02/10 10:27:06;;;;;;;4.50;2.70;;;11.60;99.90;;;11.44;84.40;97698.84;5034881;28;20076;-82